createdAt,value
2022-08-26T00:02:13.470Z,96266.19
2022-08-26T00:04:44.508Z,96303.66
2022-08-26T00:07:38.189Z,96315.47
2022-08-26T00:10:08.025Z,96322.22
2022-08-26T00:12:37.881Z,96249.16
2022-08-26T00:15:08.901Z,96272.16
2022-08-26T00:17:37.494Z,96275.88
2022-08-26T00:20:11.727Z,96300.69
2022-08-26T00:22:40.001Z,96283.88
2022-08-26T00:25:10.894Z,96275.94
2022-08-26T00:27:40.962Z,96319.38
2022-08-26T00:30:14.117Z,96302.72
2022-08-26T00:32:46.273Z,96310.00
2022-08-26T00:35:15.291Z,96273.53
2022-08-26T00:37:44.597Z,96299.03
2022-08-26T00:40:21.412Z,96278.88
2022-08-26T00:42:51.150Z,96258.25
2022-08-26T00:45:19.661Z,96291.03
2022-08-26T00:47:52.189Z,96283.47
2022-08-26T00:50:25.065Z,96280.00
2022-08-26T00:52:56.612Z,96275.75
2022-08-26T00:55:34.520Z,96311.28
2022-08-26T00:58:08.698Z,96306.50
2022-08-26T01:00:37.178Z,96307.66
2022-08-26T01:03:07.460Z,96284.97
2022-08-26T01:05:40.640Z,96286.75
2022-08-26T01:08:11.393Z,96290.09
2022-08-26T01:10:40.352Z,96311.50
2022-08-26T01:13:12.390Z,96256.09
2022-08-26T01:15:45.742Z,96254.28
2022-08-26T01:18:15.078Z,96289.13
2022-08-26T01:20:57.715Z,96328.81
2022-08-26T01:23:32.782Z,96268.66
2022-08-26T01:26:06.711Z,96310.13
2022-08-26T01:28:36.835Z,96268.09
2022-08-26T01:31:09.038Z,96251.34
2022-08-26T01:33:51.826Z,96240.97
2022-08-26T01:36:21.764Z,96303.28
2022-08-26T01:38:51.362Z,96258.19
2022-08-26T01:41:27.250Z,96291.88
2022-08-26T01:43:58.890Z,96231.66
2022-08-26T01:46:29.618Z,96306.22
2022-08-26T01:49:02.674Z,96244.75
2022-08-26T01:51:32.640Z,96280.44
2022-08-26T01:54:02.202Z,96306.63
2022-08-26T01:56:36.603Z,96259.72
2022-08-26T01:59:10.757Z,96283.69
2022-08-26T02:01:40.552Z,96251.50
2022-08-26T02:04:23.814Z,96289.75
2022-08-26T02:06:53.815Z,96243.66
2022-08-26T02:09:25.381Z,96302.31
2022-08-26T02:11:55.400Z,96306.50
2022-08-26T02:14:29.273Z,96293.72
2022-08-26T02:16:58.446Z,96282.63
2022-08-26T02:19:32.901Z,96294.00
2022-08-26T02:22:05.359Z,96295.00
2022-08-26T02:24:50.539Z,96291.06
2022-08-26T02:27:23.705Z,96258.81
2022-08-26T02:29:57.020Z,96248.81
2022-08-26T02:32:26.034Z,96290.34
2022-08-26T02:35:02.014Z,96318.34
2022-08-26T02:37:32.187Z,96255.53
2022-08-26T02:40:05.916Z,96245.50
2022-08-26T02:42:34.273Z,96275.50
2022-08-26T02:45:03.531Z,96294.56
2022-08-26T02:47:34.402Z,96273.22
2022-08-26T02:50:03.002Z,96289.03
2022-08-26T02:52:31.206Z,96285.41
2022-08-26T02:55:01.250Z,96278.91
2022-08-26T02:57:32.076Z,96222.19
2022-08-26T03:00:01.723Z,96274.19
2022-08-26T03:02:31.103Z,96123.16
2022-08-26T03:05:02.257Z,96246.09
2022-08-26T03:07:31.220Z,96285.81
2022-08-26T03:09:59.559Z,96246.59
2022-08-26T03:12:27.875Z,96310.66
2022-08-26T03:14:57.650Z,96285.06
2022-08-26T03:17:26.906Z,96242.16
2022-08-26T03:19:57.286Z,96166.06
2022-08-26T03:22:27.117Z,96301.66
2022-08-26T03:24:55.649Z,96270.06
2022-08-26T03:27:23.872Z,96253.72
2022-08-26T03:30:11.827Z,96271.31
2022-08-26T03:32:41.771Z,96238.63
2022-08-26T03:35:11.639Z,96279.09
2022-08-26T03:37:40.794Z,96286.25
2022-08-26T03:40:11.573Z,96155.13
2022-08-26T03:42:41.680Z,96282.75
2022-08-26T03:45:16.264Z,96269.69
2022-08-26T03:47:47.508Z,96260.63
2022-08-26T03:50:22.653Z,96210.53
2022-08-26T03:52:52.631Z,96221.50
2022-08-26T03:55:24.284Z,96251.91
2022-08-26T03:57:52.774Z,96266.41
2022-08-26T04:00:21.963Z,96265.84
2022-08-26T04:02:53.410Z,96248.06
2022-08-26T04:05:23.553Z,96262.25
2022-08-26T04:07:52.402Z,96233.00
2022-08-26T04:10:26.397Z,96235.31
2022-08-26T04:13:00.705Z,96260.25
2022-08-26T04:15:29.297Z,96247.56
2022-08-26T04:17:59.070Z,96272.13
2022-08-26T04:20:27.836Z,96258.03
2022-08-26T04:22:56.438Z,96273.53
2022-08-26T04:25:25.762Z,96279.72
2022-08-26T04:27:54.928Z,96285.41
2022-08-26T04:30:23.183Z,96244.53
2022-08-26T04:32:52.231Z,96208.75
2022-08-26T04:35:26.006Z,96253.69
2022-08-26T04:37:56.061Z,96271.28
2022-08-26T04:40:27.540Z,96251.47
2022-08-26T04:42:56.482Z,96325.28
2022-08-26T04:45:25.473Z,96242.53
2022-08-26T04:47:56.272Z,96296.31
2022-08-26T04:50:26.978Z,96284.59
2022-08-26T04:52:56.112Z,96259.66
2022-08-26T04:55:38.619Z,96242.84
2022-08-26T04:58:10.462Z,96132.28
2022-08-26T05:00:39.915Z,96270.03
2022-08-26T05:03:10.284Z,96250.56
2022-08-26T05:05:42.466Z,96246.13
2022-08-26T05:08:12.434Z,96271.00
2022-08-26T05:10:42.039Z,96300.84
2022-08-26T05:13:15.114Z,96230.50
2022-08-26T05:15:45.212Z,96254.00
2022-08-26T05:18:16.394Z,96290.59
2022-08-26T05:20:49.663Z,96302.47
2022-08-26T05:23:19.845Z,96279.91
2022-08-26T05:25:53.603Z,96253.09
2022-08-26T05:28:24.199Z,96298.31
2022-08-26T05:30:53.265Z,96225.03
2022-08-26T05:33:21.973Z,96300.16
2022-08-26T05:35:51.851Z,96317.19
2022-08-26T05:38:22.860Z,96308.38
2022-08-26T05:40:53.106Z,96230.53
2022-08-26T05:43:22.187Z,96258.00
2022-08-26T05:45:51.874Z,96273.44
2022-08-26T05:48:24.478Z,96255.72
2022-08-26T05:50:54.749Z,96343.41
2022-08-26T05:53:26.028Z,96238.59
2022-08-26T05:55:55.898Z,96218.31
2022-08-26T05:58:25.048Z,96266.38
2022-08-26T06:01:01.323Z,96282.72
2022-08-26T06:03:33.887Z,96254.44
2022-08-26T06:06:06.699Z,96326.53
2022-08-26T06:08:35.783Z,96279.84
2022-08-26T06:11:07.474Z,96274.59
2022-08-26T06:13:41.613Z,96305.03
2022-08-26T06:16:13.200Z,96259.13
2022-08-26T06:18:44.254Z,96259.16
2022-08-26T06:21:18.476Z,96278.94
2022-08-26T06:24:06.375Z,96295.94
2022-08-26T06:26:36.705Z,96298.19
2022-08-26T06:29:06.639Z,96286.75
2022-08-26T06:31:38.164Z,96286.44
2022-08-26T06:34:10.737Z,96311.41
2022-08-26T06:36:44.707Z,96235.13
2022-08-26T06:39:16.192Z,96239.56
2022-08-26T06:41:45.706Z,96111.22
2022-08-26T06:44:19.427Z,96248.31
2022-08-26T06:46:50.204Z,96250.69
2022-08-26T06:49:20.471Z,96268.56
2022-08-26T06:51:58.916Z,96281.72
2022-08-26T06:54:27.948Z,96309.25
2022-08-26T06:56:57.483Z,96279.06
2022-08-26T06:59:26.113Z,96329.97
2022-08-26T07:01:55.115Z,96249.38
2022-08-26T07:04:24.659Z,96267.97
2022-08-26T07:06:53.958Z,96277.56
2022-08-26T07:09:26.704Z,96284.38
2022-08-26T07:11:57.151Z,96266.59
2022-08-26T07:14:26.157Z,96278.78
2022-08-26T07:16:55.767Z,96235.19
2022-08-26T07:19:29.773Z,96233.94
2022-08-26T07:22:01.887Z,96284.06
2022-08-26T07:24:32.913Z,96272.47
2022-08-26T07:27:02.841Z,96303.13
2022-08-26T07:29:31.541Z,96318.84
2022-08-26T07:32:00.184Z,96189.84
2022-08-26T07:34:28.730Z,96210.22
2022-08-26T07:36:58.823Z,96286.06
2022-08-26T07:39:28.545Z,96276.63
2022-08-26T07:42:01.684Z,96325.56
2022-08-26T07:44:36.829Z,96287.44
2022-08-26T07:47:10.046Z,96249.69
2022-08-26T07:49:52.992Z,96283.25
2022-08-26T07:52:26.391Z,96281.69
2022-08-26T07:54:56.621Z,96293.63
2022-08-26T07:57:26.613Z,96303.16
2022-08-26T07:59:56.039Z,96298.81
2022-08-26T08:02:27.115Z,96248.72
2022-08-26T08:04:56.769Z,96273.81
2022-08-26T08:07:38.784Z,96269.81
2022-08-26T08:10:16.298Z,96398.09
2022-08-26T08:12:46.207Z,96299.81
2022-08-26T08:15:15.792Z,96259.31
2022-08-26T08:17:44.810Z,96254.75
2022-08-26T08:20:15.078Z,96291.16
2022-08-26T08:22:44.078Z,96253.69
2022-08-26T08:25:13.933Z,96290.91
2022-08-26T08:27:45.791Z,96284.69
2022-08-26T08:30:22.607Z,96236.69
2022-08-26T08:32:51.333Z,96277.97
2022-08-26T08:35:22.400Z,96296.31
2022-08-26T08:37:54.381Z,96286.59
2022-08-26T08:40:25.595Z,96308.44
2022-08-26T08:43:00.721Z,96269.06
2022-08-26T08:45:38.306Z,96250.19
2022-08-26T08:48:15.201Z,96248.84
2022-08-26T08:50:47.390Z,96270.13
2022-08-26T08:53:20.384Z,96239.94
2022-08-26T08:56:08.765Z,96263.16
2022-08-26T08:58:51.449Z,96250.66
2022-08-26T09:01:39.358Z,96286.84
2022-08-26T09:04:35.107Z,96263.09
2022-08-26T09:07:08.304Z,96246.31
2022-08-26T09:09:40.780Z,96264.66
2022-08-26T09:12:17.004Z,96239.31
2022-08-26T09:14:51.056Z,96298.72
2022-08-26T09:17:34.275Z,96290.91
2022-08-26T09:20:13.479Z,96235.25
2022-08-26T09:22:44.339Z,96260.91
2022-08-26T09:25:15.779Z,96276.31
2022-08-26T09:27:47.746Z,96270.63
2022-08-26T09:30:27.510Z,96249.31
2022-08-26T09:33:02.529Z,96245.81
2022-08-26T09:35:34.270Z,96221.50
2022-08-26T09:38:02.990Z,96280.34
2022-08-26T09:40:35.407Z,96138.44
2022-08-26T09:43:11.970Z,96231.72
2022-08-26T09:45:44.462Z,96164.91
2022-08-26T09:48:28.981Z,96244.16
2022-08-26T09:51:00.526Z,96214.75
2022-08-26T09:53:31.544Z,96212.84
2022-08-26T09:56:18.589Z,96175.28
2022-08-26T09:58:48.940Z,96186.63
2022-08-26T10:01:30.694Z,96188.50
2022-08-26T10:04:08.265Z,96177.16
2022-08-26T10:06:41.616Z,96074.81
2022-08-26T10:09:15.008Z,96180.34
2022-08-26T10:11:48.883Z,96155.00
2022-08-26T10:14:24.397Z,96189.03
2022-08-26T10:17:02.716Z,96154.22
2022-08-26T10:19:56.275Z,96152.97
2022-08-26T10:22:31.460Z,96117.44
2022-08-26T10:25:04.884Z,96170.81
2022-08-26T10:27:51.359Z,96167.06
2022-08-26T10:30:24.266Z,96191.91
2022-08-26T10:32:59.072Z,96119.63
2022-08-26T10:35:28.027Z,96191.38
2022-08-26T10:38:03.935Z,96219.44
2022-08-26T10:40:45.174Z,96142.84
2022-08-26T10:43:23.525Z,96190.31
2022-08-26T10:46:00.340Z,96197.28
2022-08-26T10:49:00.357Z,96169.78
2022-08-26T10:51:38.553Z,96246.63
2022-08-26T10:54:14.495Z,96249.31
2022-08-26T10:56:54.275Z,96211.13
2022-08-26T10:59:32.286Z,96220.56
2022-08-26T11:02:10.000Z,96194.13
2022-08-26T11:04:49.166Z,96191.34
2022-08-26T11:07:43.377Z,96219.22
2022-08-26T11:11:04.853Z,96205.25
2022-08-26T11:14:03.315Z,96193.81
2022-08-26T11:16:42.796Z,96188.84
2022-08-26T11:19:14.235Z,96194.22
2022-08-26T11:21:52.492Z,96194.59
2022-08-26T11:24:47.133Z,96233.16
2022-08-26T11:28:05.238Z,96220.75
2022-08-26T11:30:56.956Z,96147.00
2022-08-26T11:33:58.245Z,96244.28
2022-08-26T11:36:53.311Z,96151.84
2022-08-26T11:39:28.678Z,96216.19
2022-08-26T11:42:01.238Z,96203.91
2022-08-26T11:44:40.620Z,96162.03
2022-08-26T11:47:11.297Z,96244.41
2022-08-26T11:49:41.178Z,96186.75
2022-08-26T11:52:20.969Z,96112.56
2022-08-26T11:55:03.367Z,96183.31
2022-08-26T11:57:35.642Z,96192.88
2022-08-26T12:00:08.332Z,96108.75
2022-08-26T12:02:41.514Z,96218.16
2022-08-26T12:05:10.201Z,96176.09
2022-08-26T12:07:44.097Z,96183.41
2022-08-26T12:10:29.822Z,96166.06
2022-08-26T12:13:00.437Z,96181.50
2022-08-26T12:15:30.200Z,96165.69
2022-08-26T12:18:00.358Z,96146.75
2022-08-26T12:20:47.975Z,96170.41
2022-08-26T12:23:28.165Z,96182.69
2022-08-26T12:26:07.295Z,96208.03
2022-08-26T12:28:43.610Z,96219.16
2022-08-26T12:31:11.922Z,96184.47
2022-08-26T12:33:40.471Z,96173.38
2022-08-26T12:36:08.794Z,96193.97
2022-08-26T12:38:40.388Z,96171.06
2022-08-26T12:41:08.803Z,96147.69
2022-08-26T12:43:43.224Z,96165.69
2022-08-26T12:46:15.337Z,96155.25
2022-08-26T12:48:49.000Z,96152.94
2022-08-26T12:51:25.910Z,96149.06
2022-08-26T12:53:56.120Z,96071.09
2022-08-26T12:56:31.547Z,96205.75
2022-08-26T12:59:07.675Z,96074.31
2022-08-26T13:01:42.871Z,96149.41
2022-08-26T13:04:34.448Z,96134.41
2022-08-26T13:07:30.080Z,96194.91
2022-08-26T13:10:00.929Z,96161.16
2022-08-26T13:12:34.424Z,96167.69
2022-08-26T13:15:06.429Z,96147.13
2022-08-26T13:17:35.865Z,96109.13
2022-08-26T13:20:05.016Z,96129.97
2022-08-26T13:22:33.434Z,96151.31
2022-08-26T13:25:03.023Z,96170.00
2022-08-26T13:27:31.265Z,96065.88
2022-08-26T13:30:00.294Z,96140.94
2022-08-26T13:32:28.917Z,96084.13
2022-08-26T13:34:58.729Z,96124.97
2022-08-26T13:37:34.735Z,96155.50
2022-08-26T13:40:07.473Z,96045.22
2022-08-26T13:42:36.098Z,96134.69
2022-08-26T13:45:06.193Z,96118.78
2022-08-26T13:47:34.402Z,96138.88
2022-08-26T13:50:02.869Z,96110.81
2022-08-26T13:52:31.305Z,96161.16
2022-08-26T13:55:00.790Z,96137.53
2022-08-26T13:57:31.327Z,96114.50
2022-08-26T14:00:00.107Z,96054.28
2022-08-26T14:02:29.027Z,96060.06
2022-08-26T14:04:59.607Z,96120.66
2022-08-26T14:07:27.831Z,96120.22
2022-08-26T14:09:56.059Z,96109.22
2022-08-26T14:12:24.419Z,96126.47
2022-08-26T14:14:53.943Z,96047.63
2022-08-26T14:17:24.460Z,96102.47
2022-08-26T14:19:53.630Z,96047.97
2022-08-26T14:22:23.408Z,96070.47
2022-08-26T14:24:53.755Z,96120.19
2022-08-26T14:27:21.936Z,96106.00
2022-08-26T14:29:50.224Z,96142.69
2022-08-26T14:32:26.166Z,96113.66
2022-08-26T14:34:55.383Z,96098.72
2022-08-26T14:37:23.837Z,96069.22
2022-08-26T14:39:52.821Z,96009.94
2022-08-26T14:42:24.567Z,96080.50
2022-08-26T14:44:58.357Z,96117.28
2022-08-26T14:47:28.015Z,96088.13
2022-08-26T14:49:56.266Z,96110.53
2022-08-26T14:52:24.900Z,96100.75
2022-08-26T14:54:54.950Z,96072.78
2022-08-26T14:57:23.954Z,96074.34
2022-08-26T14:59:52.185Z,96081.97
2022-08-26T15:02:32.910Z,96061.22
2022-08-26T15:05:04.405Z,96114.94
2022-08-26T15:07:32.788Z,96065.78
2022-08-26T15:10:01.144Z,96092.00
2022-08-26T15:12:29.325Z,96055.66
2022-08-26T15:14:57.474Z,96055.97
2022-08-26T15:17:26.210Z,96066.00
2022-08-26T15:19:54.399Z,96060.91
2022-08-26T15:22:24.191Z,96070.59
2022-08-26T15:24:58.173Z,96073.00
2022-08-26T15:27:26.562Z,96053.38
2022-08-26T15:29:55.125Z,96091.63
2022-08-26T15:32:24.260Z,96076.53
2022-08-26T15:34:53.158Z,96067.41
2022-08-26T15:37:22.843Z,96081.91
2022-08-26T15:39:52.022Z,96107.78
2022-08-26T15:42:20.870Z,96086.00
2022-08-26T15:44:49.862Z,96057.91
2022-08-26T15:47:18.376Z,96059.78
2022-08-26T15:49:47.907Z,96075.97
2022-08-26T15:52:17.417Z,96036.13
2022-08-26T15:54:46.926Z,96037.72
2022-08-26T15:57:17.599Z,96066.03
2022-08-26T15:59:48.259Z,96033.94
2022-08-26T16:02:19.517Z,96025.06
2022-08-26T16:04:47.771Z,96122.81
2022-08-26T16:07:15.986Z,96037.72
2022-08-26T16:09:44.340Z,96056.56
2022-08-26T16:14:44.499Z,96122.97
2022-08-26T16:17:13.070Z,96097.06
2022-08-26T16:19:41.249Z,96127.47
2022-08-26T16:22:09.445Z,96077.69
2022-08-26T16:24:38.389Z,96145.88
2022-08-26T16:27:07.471Z,96071.28
2022-08-26T16:29:39.756Z,96112.59
2022-08-26T16:32:09.120Z,96073.16
2022-08-26T16:34:37.289Z,96101.13
2022-08-26T16:37:15.322Z,96125.78
2022-08-26T16:39:45.088Z,96107.47
2022-08-26T16:42:13.568Z,96094.44
2022-08-26T16:44:45.262Z,96123.41
2022-08-26T16:47:14.367Z,96106.06
2022-08-26T16:49:43.830Z,96166.28
2022-08-26T16:52:12.737Z,96072.66
2022-08-26T16:54:43.553Z,96125.81
2022-08-26T16:57:13.429Z,96091.44
2022-08-26T16:59:43.175Z,96115.41
2022-08-26T17:02:12.435Z,96126.00
2022-08-26T17:04:41.702Z,96125.34
2022-08-26T17:07:16.374Z,96100.34
2022-08-26T17:09:44.551Z,96095.22
2022-08-26T17:12:12.799Z,96085.16
2022-08-26T17:14:42.437Z,96071.38
2022-08-26T17:17:14.169Z,96132.34
2022-08-26T17:19:47.099Z,96144.78
2022-08-26T17:22:15.909Z,96086.41
2022-08-26T17:24:44.195Z,96051.41
2022-08-26T17:27:12.876Z,96066.78
2022-08-26T17:29:42.435Z,96140.25
2022-08-26T17:32:10.622Z,96135.88
2022-08-26T17:34:38.890Z,96121.94
2022-08-26T17:37:08.251Z,96104.63
2022-08-26T17:39:42.423Z,96111.53
2022-08-26T17:42:11.745Z,96088.13
2022-08-26T17:44:40.452Z,96133.63
2022-08-26T17:47:10.000Z,96093.25
2022-08-26T17:49:38.235Z,96081.09
2022-08-26T17:52:09.681Z,96087.69
2022-08-26T17:54:39.673Z,96118.50
2022-08-26T17:57:10.692Z,96127.03
2022-08-26T17:59:40.946Z,96171.69
2022-08-26T18:02:14.741Z,96107.59
2022-08-26T18:04:43.052Z,96124.06
2022-08-26T18:07:12.033Z,96115.94
2022-08-26T18:09:40.606Z,96118.13
2022-08-26T18:12:09.565Z,96110.50
2022-08-26T18:14:37.904Z,96101.72
2022-08-26T18:17:06.186Z,96103.06
2022-08-26T18:19:35.762Z,96103.81
2022-08-26T18:22:05.723Z,96125.56
2022-08-26T18:24:34.817Z,96090.09
2022-08-26T18:27:03.034Z,96180.56
2022-08-26T18:29:31.242Z,96164.97
2022-08-26T18:31:59.495Z,96211.13
2022-08-26T18:34:31.639Z,96225.94
2022-08-26T18:37:01.607Z,96203.44
2022-08-26T18:39:29.909Z,96231.34
2022-08-26T18:41:58.092Z,96265.81
2022-08-26T18:44:26.371Z,96226.75
2022-08-26T18:46:54.713Z,96219.78
2022-08-26T18:49:23.191Z,96202.56
2022-08-26T18:51:52.403Z,96245.59
2022-08-26T18:54:22.495Z,96228.63
2022-08-26T18:56:50.919Z,96302.47
2022-08-26T18:59:19.285Z,96228.66
2022-08-26T19:01:55.065Z,96219.22
2022-08-26T19:04:23.340Z,96240.28
2022-08-26T19:06:52.865Z,96217.38
2022-08-26T19:09:22.967Z,96210.09
2022-08-26T19:11:51.279Z,96322.00
2022-08-26T19:14:20.689Z,96235.63
2022-08-26T19:16:52.361Z,96240.41
2022-08-26T19:19:23.814Z,96266.66
2022-08-26T19:21:52.682Z,96228.50
2022-08-26T19:24:23.164Z,96270.63
2022-08-26T19:26:59.996Z,96241.22
2022-08-26T19:29:30.807Z,96267.25
2022-08-26T19:31:59.735Z,96296.97
2022-08-26T19:34:27.975Z,96341.19
2022-08-26T19:36:58.279Z,96225.13
2022-08-26T19:39:28.149Z,96333.25
2022-08-26T19:41:56.541Z,96241.94
2022-08-26T19:44:42.936Z,96327.34
2022-08-26T19:47:12.929Z,96349.56
2022-08-26T19:49:41.122Z,96291.19
2022-08-26T19:52:11.013Z,96318.75
2022-08-26T19:54:41.217Z,96313.06
2022-08-26T19:57:09.420Z,96365.38
2022-08-26T19:59:37.648Z,96382.03
2022-08-26T20:02:31.652Z,96343.66
2022-08-26T20:04:59.848Z,96307.94
2022-08-26T20:07:28.024Z,96360.50
2022-08-26T20:09:59.333Z,96327.72
2022-08-26T20:12:29.208Z,96291.78
2022-08-26T20:14:57.456Z,96313.88
2022-08-26T20:17:25.623Z,96328.97
2022-08-26T20:20:13.302Z,96338.28
2022-08-26T20:22:59.579Z,96306.59
2022-08-26T20:25:29.456Z,96252.66
2022-08-26T20:27:57.635Z,96322.28
2022-08-26T20:30:25.814Z,96297.41
2022-08-26T20:32:53.969Z,96345.31
2022-08-26T20:35:23.819Z,96298.59
2022-08-26T20:37:52.118Z,96281.34
2022-08-26T20:40:21.314Z,96321.19
2022-08-26T20:42:50.926Z,96308.69
2022-08-26T20:45:19.272Z,96303.03
2022-08-26T20:47:47.503Z,96316.22
2022-08-26T20:50:15.736Z,96288.88
2022-08-26T20:52:43.930Z,96324.69
2022-08-26T20:55:12.926Z,96264.81
2022-08-26T20:57:42.039Z,96321.25
2022-08-26T21:00:16.244Z,96276.84
2022-08-26T21:02:46.250Z,96297.00
2022-08-26T21:05:14.466Z,96311.34
2022-08-26T21:07:42.728Z,96325.81
2022-08-26T21:10:12.508Z,96365.94
2022-08-26T21:12:40.727Z,96283.66
2022-08-26T21:15:11.774Z,96325.63
2022-08-26T21:17:39.985Z,96284.16
2022-08-26T21:20:09.495Z,96276.38
2022-08-26T21:22:37.723Z,96270.66
2022-08-26T21:25:07.212Z,96273.91
2022-08-26T21:27:36.158Z,96271.47
2022-08-26T21:30:05.143Z,96270.66
2022-08-26T21:32:34.760Z,96272.94
2022-08-26T21:35:03.048Z,96221.88
2022-08-26T21:37:31.302Z,96295.19
2022-08-26T21:40:01.853Z,96248.91
2022-08-26T21:42:33.553Z,96232.03
2022-08-26T21:45:03.250Z,96226.69
2022-08-26T21:47:32.609Z,96263.47
2022-08-26T21:50:02.413Z,96286.00
2022-08-26T21:52:30.678Z,96280.53
2022-08-26T21:54:59.702Z,96270.91
2022-08-26T21:57:29.849Z,96278.75
2022-08-26T21:59:58.482Z,96147.06
2022-08-26T22:02:27.010Z,96284.91
2022-08-26T22:04:56.383Z,96297.56
2022-08-26T22:07:25.968Z,96283.47
2022-08-26T22:09:54.143Z,96327.84
2022-08-26T22:12:22.310Z,96290.84
2022-08-26T22:14:50.493Z,96262.28
2022-08-26T22:17:18.730Z,96333.84
2022-08-26T22:19:47.570Z,96276.97
2022-08-26T22:22:16.463Z,96239.19
2022-08-26T22:24:45.965Z,96298.22
2022-08-26T22:27:15.333Z,96239.25
2022-08-26T22:29:43.712Z,96211.78
2022-08-26T22:32:12.511Z,96271.31
2022-08-26T22:34:41.828Z,96255.50
2022-08-26T22:37:10.033Z,96242.59
2022-08-26T22:39:38.731Z,96239.94
2022-08-26T22:42:08.369Z,96333.25
2022-08-26T22:44:37.550Z,96303.63
2022-08-26T22:47:06.231Z,96285.72
2022-08-26T22:49:34.428Z,96285.13
2022-08-26T22:52:02.861Z,96297.75
2022-08-26T22:54:31.146Z,96295.03
2022-08-26T22:56:59.420Z,96235.25
2022-08-26T22:59:30.131Z,96318.66
2022-08-26T23:01:58.347Z,96204.50
2022-08-26T23:04:26.555Z,96272.88
2022-08-26T23:06:54.936Z,96270.00
2022-08-26T23:09:23.142Z,96263.88
2022-08-26T23:11:51.328Z,96273.50
2022-08-26T23:14:19.999Z,96279.03
2022-08-26T23:16:49.877Z,96250.88
2022-08-26T23:19:21.527Z,96158.88
2022-08-26T23:21:50.605Z,96235.72
2022-08-26T23:24:19.423Z,96224.69
2022-08-26T23:26:48.165Z,96261.69
2022-08-26T23:29:16.710Z,96236.59
2022-08-26T23:31:45.520Z,96240.75
2022-08-26T23:34:32.699Z,96208.41
2022-08-26T23:37:01.686Z,96236.19
2022-08-26T23:39:30.264Z,96283.88
2022-08-26T23:41:58.618Z,96213.06
2022-08-26T23:44:26.958Z,96225.50
2022-08-26T23:46:55.311Z,96206.63
2022-08-26T23:49:25.892Z,96201.09
2022-08-26T23:52:12.522Z,96245.78
2022-08-26T23:54:41.631Z,96193.66
2022-08-26T23:57:10.912Z,96284.78
2022-08-26T23:59:40.190Z,96277.38
